sensor_id;sensor_type;location;lat;lon;timestamp;P1;durP1;ratioP1;P2;durP2;ratioP2
24995;SDS011;13016;52.162;21.034;2023-09-08T00:04:34;8.70;;;6.00;;
24995;SDS011;13016;52.162;21.034;2023-09-08T00:10:34;7.70;;;6.00;;
24995;SDS011;13016;52.162;21.034;2023-09-08T00:16:34;9.50;;;5.90;;
24995;SDS011;13016;52.162;21.034;2023-09-08T00:22:35;7.90;;;6.20;;
24995;SDS011;13016;52.162;21.034;2023-09-08T00:28:38;8.70;;;5.80;;
24995;SDS011;13016;52.162;21.034;2023-09-08T00:34:40;11.50;;;6.40;;
24995;SDS011;13016;52.162;21.034;2023-09-08T00:40:41;13.40;;;6.00;;
24995;SDS011;13016;52.162;21.034;2023-09-08T00:46:43;9.10;;;6.40;;
24995;SDS011;13016;52.162;21.034;2023-09-08T00:52:45;8.80;;;5.60;;
24995;SDS011;13016;52.162;21.034;2023-09-08T00:58:46;9.00;;;5.60;;
24995;SDS011;13016;52.162;21.034;2023-09-08T01:04:46;7.70;;;5.90;;
24995;SDS011;13016;52.162;21.034;2023-09-08T01:10:47;7.30;;;5.50;;
24995;SDS011;13016;52.162;21.034;2023-09-08T01:16:47;9.80;;;5.90;;
24995;SDS011;13016;52.162;21.034;2023-09-08T01:29:13;9.20;;;6.40;;
24995;SDS011;13016;52.162;21.034;2023-09-08T01:35:15;11.70;;;6.30;;
24995;SDS011;13016;52.162;21.034;2023-09-08T01:41:18;8.90;;;6.10;;
24995;SDS011;13016;52.162;21.034;2023-09-08T01:47:18;8.40;;;6.10;;
24995;SDS011;13016;52.162;21.034;2023-09-08T01:53:19;8.50;;;5.80;;
24995;SDS011;13016;52.162;21.034;2023-09-08T01:59:20;9.40;;;5.90;;
24995;SDS011;13016;52.162;21.034;2023-09-08T02:05:20;10.70;;;6.30;;
24995;SDS011;13016;52.162;21.034;2023-09-08T02:11:20;10.00;;;6.20;;
24995;SDS011;13016;52.162;21.034;2023-09-08T02:17:21;9.40;;;6.00;;
24995;SDS011;13016;52.162;21.034;2023-09-08T02:23:22;9.20;;;6.00;;
24995;SDS011;13016;52.162;21.034;2023-09-08T02:29:22;8.40;;;6.20;;
24995;SDS011;13016;52.162;21.034;2023-09-08T02:35:23;9.00;;;6.50;;
24995;SDS011;13016;52.162;21.034;2023-09-08T02:41:25;9.60;;;6.70;;
24995;SDS011;13016;52.162;21.034;2023-09-08T02:47:45;9.70;;;6.90;;
24995;SDS011;13016;52.162;21.034;2023-09-08T02:53:45;9.80;;;6.70;;
24995;SDS011;13016;52.162;21.034;2023-09-08T02:59:49;9.70;;;6.80;;
24995;SDS011;13016;52.162;21.034;2023-09-08T03:05:53;12.40;;;6.70;;
24995;SDS011;13016;52.162;21.034;2023-09-08T03:11:59;10.80;;;6.80;;
24995;SDS011;13016;52.162;21.034;2023-09-08T03:18:17;9.40;;;6.60;;
24995;SDS011;13016;52.162;21.034;2023-09-08T03:24:18;8.90;;;6.70;;
24995;SDS011;13016;52.162;21.034;2023-09-08T03:30:22;9.60;;;7.90;;
24995;SDS011;13016;52.162;21.034;2023-09-08T03:36:22;11.10;;;7.50;;
24995;SDS011;13016;52.162;21.034;2023-09-08T03:42:22;11.50;;;8.20;;
24995;SDS011;13016;52.162;21.034;2023-09-08T03:48:22;10.60;;;7.00;;
24995;SDS011;13016;52.162;21.034;2023-09-08T03:54:23;9.60;;;7.20;;
24995;SDS011;13016;52.162;21.034;2023-09-08T04:06:24;14.10;;;7.40;;
24995;SDS011;13016;52.162;21.034;2023-09-08T04:12:24;16.50;;;7.50;;
24995;SDS011;13016;52.162;21.034;2023-09-08T04:18:26;10.80;;;7.20;;
24995;SDS011;13016;52.162;21.034;2023-09-08T04:30:36;11.50;;;6.70;;
24995;SDS011;13016;52.162;21.034;2023-09-08T04:36:36;8.50;;;6.60;;
24995;SDS011;13016;52.162;21.034;2023-09-08T04:42:36;9.90;;;7.00;;
24995;SDS011;13016;52.162;21.034;2023-09-08T04:48:36;9.40;;;7.50;;
24995;SDS011;13016;52.162;21.034;2023-09-08T04:54:57;11.20;;;6.90;;
24995;SDS011;13016;52.162;21.034;2023-09-08T05:00:57;12.00;;;7.60;;
24995;SDS011;13016;52.162;21.034;2023-09-08T05:06:57;11.00;;;7.50;;
24995;SDS011;13016;52.162;21.034;2023-09-08T05:12:58;10.30;;;7.50;;
24995;SDS011;13016;52.162;21.034;2023-09-08T05:19:01;10.80;;;8.50;;
24995;SDS011;13016;52.162;21.034;2023-09-08T05:25:13;10.80;;;8.50;;
24995;SDS011;13016;52.162;21.034;2023-09-08T05:32:03;9.50;;;7.80;;
24995;SDS011;13016;52.162;21.034;2023-09-08T05:38:16;12.40;;;8.30;;
24995;SDS011;13016;52.162;21.034;2023-09-08T05:44:20;12.80;;;8.40;;
24995;SDS011;13016;52.162;21.034;2023-09-08T05:50:22;10.00;;;8.00;;
24995;SDS011;13016;52.162;21.034;2023-09-08T06:02:42;15.30;;;8.20;;
24995;SDS011;13016;52.162;21.034;2023-09-08T06:08:43;10.60;;;7.90;;
24995;SDS011;13016;52.162;21.034;2023-09-08T06:15:06;10.00;;;7.50;;
24995;SDS011;13016;52.162;21.034;2023-09-08T06:21:07;11.40;;;8.30;;
24995;SDS011;13016;52.162;21.034;2023-09-08T06:27:27;10.90;;;7.70;;
24995;SDS011;13016;52.162;21.034;2023-09-08T06:33:27;10.00;;;7.20;;
24995;SDS011;13016;52.162;21.034;2023-09-08T06:39:27;8.40;;;6.80;;
24995;SDS011;13016;52.162;21.034;2023-09-08T06:45:28;12.60;;;7.00;;
24995;SDS011;13016;52.162;21.034;2023-09-08T06:51:29;10.90;;;7.20;;
24995;SDS011;13016;52.162;21.034;2023-09-08T06:57:42;9.20;;;6.70;;
24995;SDS011;13016;52.162;21.034;2023-09-08T07:52:16;10.80;;;6.40;;
24995;SDS011;13016;52.162;21.034;2023-09-08T08:07:06;10.60;;;7.10;;
24995;SDS011;13016;52.162;21.034;2023-09-08T08:31:59;10.20;;;6.20;;
24995;SDS011;13016;52.162;21.034;2023-09-08T08:38:12;17.80;;;6.30;;
24995;SDS011;13016;52.162;21.034;2023-09-08T09:33:48;9.90;;;5.70;;
24995;SDS011;13016;52.162;21.034;2023-09-08T10:47:04;9.80;;;6.10;;
24995;SDS011;13016;52.162;21.034;2023-09-08T10:53:25;7.00;;;5.10;;
24995;SDS011;13016;52.162;21.034;2023-09-08T10:59:38;16.40;;;12.40;;
24995;SDS011;13016;52.162;21.034;2023-09-08T11:06:04;11.90;;;5.90;;
24995;SDS011;13016;52.162;21.034;2023-09-08T11:12:07;6.00;;;5.10;;
24995;SDS011;13016;52.162;21.034;2023-09-08T11:48:41;7.30;;;5.20;;
24995;SDS011;13016;52.162;21.034;2023-09-08T12:15:44;7.20;;;5.30;;
24995;SDS011;13016;52.162;21.034;2023-09-08T12:28:18;11.70;;;5.80;;
24995;SDS011;13016;52.162;21.034;2023-09-08T12:40:44;8.40;;;5.60;;
24995;SDS011;13016;52.162;21.034;2023-09-08T13:59:51;12.40;;;9.90;;
24995;SDS011;13016;52.162;21.034;2023-09-08T14:06:01;9.10;;;5.60;;
24995;SDS011;13016;52.162;21.034;2023-09-08T14:12:04;8.80;;;5.50;;
24995;SDS011;13016;52.162;21.034;2023-09-08T14:18:05;6.70;;;5.20;;
24995;SDS011;13016;52.162;21.034;2023-09-08T14:24:05;7.20;;;6.00;;
24995;SDS011;13016;52.162;21.034;2023-09-08T14:30:08;9.50;;;6.10;;
24995;SDS011;13016;52.162;21.034;2023-09-08T14:36:09;10.20;;;5.70;;
24995;SDS011;13016;52.162;21.034;2023-09-08T14:48:55;10.00;;;7.00;;
24995;SDS011;13016;52.162;21.034;2023-09-08T15:00:55;10.00;;;5.90;;
24995;SDS011;13016;52.162;21.034;2023-09-08T15:06:55;7.70;;;5.40;;
24995;SDS011;13016;52.162;21.034;2023-09-08T15:12:56;7.00;;;4.90;;
24995;SDS011;13016;52.162;21.034;2023-09-08T15:18:56;8.10;;;5.40;;
24995;SDS011;13016;52.162;21.034;2023-09-08T15:24:56;7.10;;;5.50;;
24995;SDS011;13016;52.162;21.034;2023-09-08T15:30:57;7.20;;;5.00;;
24995;SDS011;13016;52.162;21.034;2023-09-08T15:36:57;9.70;;;5.20;;
24995;SDS011;13016;52.162;21.034;2023-09-08T15:42:57;9.40;;;5.00;;
24995;SDS011;13016;52.162;21.034;2023-09-08T15:48:58;8.20;;;5.20;;
24995;SDS011;13016;52.162;21.034;2023-09-08T16:01:55;8.30;;;4.90;;
24995;SDS011;13016;52.162;21.034;2023-09-08T16:07:55;6.70;;;5.00;;
24995;SDS011;13016;52.162;21.034;2023-09-08T16:13:56;8.00;;;5.50;;
24995;SDS011;13016;52.162;21.034;2023-09-08T16:19:56;7.30;;;5.10;;
24995;SDS011;13016;52.162;21.034;2023-09-08T16:25:56;8.60;;;5.50;;
24995;SDS011;13016;52.162;21.034;2023-09-08T16:31:57;8.00;;;5.50;;
24995;SDS011;13016;52.162;21.034;2023-09-08T16:37:57;11.10;;;7.70;;
24995;SDS011;13016;52.162;21.034;2023-09-08T16:43:57;11.20;;;8.10;;
24995;SDS011;13016;52.162;21.034;2023-09-08T16:49:57;10.00;;;5.70;;
24995;SDS011;13016;52.162;21.034;2023-09-08T16:55:58;11.60;;;5.60;;
24995;SDS011;13016;52.162;21.034;2023-09-08T17:01:58;14.40;;;7.60;;
24995;SDS011;13016;52.162;21.034;2023-09-08T17:07:59;13.00;;;8.80;;
24995;SDS011;13016;52.162;21.034;2023-09-08T17:13:59;10.80;;;6.60;;
24995;SDS011;13016;52.162;21.034;2023-09-08T17:19:59;9.40;;;5.90;;
24995;SDS011;13016;52.162;21.034;2023-09-08T17:25:59;11.30;;;6.60;;
24995;SDS011;13016;52.162;21.034;2023-09-08T17:31:59;12.50;;;6.50;;
24995;SDS011;13016;52.162;21.034;2023-09-08T17:38:00;9.80;;;7.10;;
24995;SDS011;13016;52.162;21.034;2023-09-08T17:44:00;10.00;;;6.40;;
24995;SDS011;13016;52.162;21.034;2023-09-08T17:50:00;9.40;;;6.60;;
24995;SDS011;13016;52.162;21.034;2023-09-08T17:56:01;12.10;;;6.90;;
24995;SDS011;13016;52.162;21.034;2023-09-08T18:02:02;11.80;;;7.10;;
24995;SDS011;13016;52.162;21.034;2023-09-08T18:08:02;9.80;;;6.90;;
24995;SDS011;13016;52.162;21.034;2023-09-08T18:14:03;11.00;;;7.30;;
24995;SDS011;13016;52.162;21.034;2023-09-08T18:20:03;12.10;;;8.40;;
24995;SDS011;13016;52.162;21.034;2023-09-08T18:26:03;17.60;;;10.40;;
24995;SDS011;13016;52.162;21.034;2023-09-08T18:32:04;14.80;;;9.40;;
24995;SDS011;13016;52.162;21.034;2023-09-08T18:38:04;11.40;;;8.60;;
24995;SDS011;13016;52.162;21.034;2023-09-08T18:44:04;10.60;;;8.10;;
24995;SDS011;13016;52.162;21.034;2023-09-08T18:50:05;15.00;;;8.60;;
24995;SDS011;13016;52.162;21.034;2023-09-08T19:02:06;9.60;;;7.20;;
24995;SDS011;13016;52.162;21.034;2023-09-08T19:08:07;14.50;;;7.70;;
24995;SDS011;13016;52.162;21.034;2023-09-08T19:14:07;11.80;;;7.60;;
24995;SDS011;13016;52.162;21.034;2023-09-08T19:20:08;17.80;;;12.10;;
24995;SDS011;13016;52.162;21.034;2023-09-08T19:26:08;14.00;;;9.90;;
24995;SDS011;13016;52.162;21.034;2023-09-08T19:32:09;11.70;;;8.60;;
24995;SDS011;13016;52.162;21.034;2023-09-08T19:38:09;15.40;;;8.10;;
24995;SDS011;13016;52.162;21.034;2023-09-08T19:44:09;17.80;;;9.10;;
24995;SDS011;13016;52.162;21.034;2023-09-08T19:50:09;13.20;;;8.90;;
24995;SDS011;13016;52.162;21.034;2023-09-08T19:56:11;15.40;;;8.40;;
24995;SDS011;13016;52.162;21.034;2023-09-08T20:02:11;25.10;;;10.70;;
24995;SDS011;13016;52.162;21.034;2023-09-08T20:08:11;15.80;;;9.20;;
24995;SDS011;13016;52.162;21.034;2023-09-08T20:14:12;18.10;;;9.00;;
24995;SDS011;13016;52.162;21.034;2023-09-08T20:20:12;23.90;;;14.80;;
24995;SDS011;13016;52.162;21.034;2023-09-08T20:26:13;16.40;;;10.30;;
24995;SDS011;13016;52.162;21.034;2023-09-08T20:32:13;17.80;;;9.70;;
24995;SDS011;13016;52.162;21.034;2023-09-08T20:38:13;13.80;;;9.90;;
24995;SDS011;13016;52.162;21.034;2023-09-08T20:44:13;15.80;;;10.30;;
24995;SDS011;13016;52.162;21.034;2023-09-08T20:50:14;16.90;;;10.70;;
24995;SDS011;13016;52.162;21.034;2023-09-08T20:56:15;19.10;;;11.20;;
24995;SDS011;13016;52.162;21.034;2023-09-08T21:02:15;18.70;;;11.30;;
24995;SDS011;13016;52.162;21.034;2023-09-08T21:08:17;29.00;;;17.50;;
24995;SDS011;13016;52.162;21.034;2023-09-08T21:14:18;31.00;;;19.80;;
24995;SDS011;13016;52.162;21.034;2023-09-08T21:20:18;17.60;;;12.00;;
24995;SDS011;13016;52.162;21.034;2023-09-08T21:26:19;16.90;;;10.90;;
24995;SDS011;13016;52.162;21.034;2023-09-08T21:32:20;18.40;;;11.90;;
24995;SDS011;13016;52.162;21.034;2023-09-08T21:38:22;18.90;;;12.30;;
24995;SDS011;13016;52.162;21.034;2023-09-08T21:44:22;18.60;;;11.60;;
24995;SDS011;13016;52.162;21.034;2023-09-08T21:50:22;42.40;;;27.20;;
24995;SDS011;13016;52.162;21.034;2023-09-08T21:56:22;17.60;;;12.30;;
24995;SDS011;13016;52.162;21.034;2023-09-08T22:02:22;20.10;;;13.20;;
24995;SDS011;13016;52.162;21.034;2023-09-08T22:08:23;19.20;;;12.60;;
24995;SDS011;13016;52.162;21.034;2023-09-08T22:14:23;19.90;;;12.80;;
24995;SDS011;13016;52.162;21.034;2023-09-08T22:20:23;16.40;;;11.90;;
24995;SDS011;13016;52.162;21.034;2023-09-08T22:26:24;18.50;;;13.30;;
24995;SDS011;13016;52.162;21.034;2023-09-08T22:32:24;16.30;;;12.60;;
24995;SDS011;13016;52.162;21.034;2023-09-08T22:38:24;21.90;;;12.30;;
24995;SDS011;13016;52.162;21.034;2023-09-08T22:44:24;17.90;;;12.30;;
24995;SDS011;13016;52.162;21.034;2023-09-08T22:50:24;22.00;;;13.00;;
24995;SDS011;13016;52.162;21.034;2023-09-08T22:56:25;20.80;;;13.90;;
24995;SDS011;13016;52.162;21.034;2023-09-08T23:02:26;21.10;;;14.00;;
24995;SDS011;13016;52.162;21.034;2023-09-08T23:08:27;17.50;;;13.30;;
24995;SDS011;13016;52.162;21.034;2023-09-08T23:14:28;21.80;;;14.80;;
24995;SDS011;13016;52.162;21.034;2023-09-08T23:20:28;21.40;;;14.00;;
24995;SDS011;13016;52.162;21.034;2023-09-08T23:26:28;20.40;;;15.20;;
24995;SDS011;13016;52.162;21.034;2023-09-08T23:32:29;23.90;;;15.20;;
24995;SDS011;13016;52.162;21.034;2023-09-08T23:38:29;19.70;;;14.90;;
24995;SDS011;13016;52.162;21.034;2023-09-08T23:44:29;22.40;;;15.00;;
24995;SDS011;13016;52.162;21.034;2023-09-08T23:56:48;19.70;;;13.80;;
